Time;durP1;ratioP1;P1;durP2;ratioP2;P2;SDS_P1;SDS_P2;PMS_P1;PMS_P2;Temp;Humidity;BMP_temperature;BMP_pressure;BME280_temperature;BME280_humidity;BME280_pressure;Samples;Min_cycle;Max_cycle;Signal;HPM_P1;HPM_P2
2022/11/15 00:00:28;;;;;;;9.60;7.73;;;11.80;99.90;;;;;;4957142;29;20430;-72
2022/11/15 00:02:54;;;;;;;12.60;7.83;;;11.90;99.90;;;;;;4956759;29;20486;-72
2022/11/15 00:05:19;;;;;;;11.70;8.73;;;11.90;99.90;;;;;;4956971;29;20234;-72
2022/11/15 00:07:45;;;;;;;9.30;8.20;;;11.90;99.90;;;;;;4956811;29;20253;-72
2022/11/15 00:10:10;;;;;;;10.97;7.60;;;12.00;99.90;;;;;;4956940;29;20645;-73
2022/11/15 00:12:37;;;;;;;9.53;7.07;;;12.00;99.90;;;;;;4956811;29;20186;-71
2022/11/15 00:15:02;;;;;;;12.37;7.90;;;12.10;99.90;;;;;;4956793;29;20182;-71
2022/11/15 00:17:28;;;;;;;11.30;7.30;;;12.10;99.90;;;;;;4956642;29;20943;-71
2022/11/15 00:19:53;;;;;;;11.10;8.10;;;12.10;99.90;;;;;;4956478;29;20517;-71
2022/11/15 00:22:19;;;;;;;10.10;7.20;;;12.10;99.90;;;;;;4956688;29;20186;-72
2022/11/15 00:24:45;;;;;;;14.30;8.07;;;12.10;99.90;;;;;;4956523;29;20265;-72
2022/11/15 00:27:11;;;;;;;9.33;8.30;;;12.10;99.90;;;;;;4956442;29;20189;-71
2022/11/15 00:29:38;;;;;;;13.10;8.10;;;12.10;99.90;;;;;;4956510;29;20270;-71
2022/11/15 00:32:04;;;;;;;10.90;7.40;;;12.10;99.90;;;;;;4955950;28;20317;-72
2022/11/15 00:34:30;;;;;;;9.63;7.10;;;12.10;99.90;;;;;;4956452;29;20800;-75
2022/11/15 00:36:56;;;;;;;11.60;7.30;;;12.20;99.90;;;;;;4956403;29;20449;-75
2022/11/15 00:39:21;;;;;;;10.10;8.73;;;12.20;99.90;;;;;;4956460;29;20190;-75
2022/11/15 00:41:47;;;;;;;10.00;7.60;;;12.20;99.90;;;;;;4956452;29;20189;-75
2022/11/15 00:44:12;;;;;;;12.43;8.00;;;12.30;99.90;;;;;;4956222;29;20228;-75
2022/11/15 00:46:38;;;;;;;8.83;7.00;;;12.40;99.90;;;;;;4956384;29;20181;-75
2022/11/15 00:49:03;;;;;;;10.13;7.90;;;12.40;99.90;;;;;;4956190;29;20179;-75
2022/11/15 00:51:30;;;;;;;12.00;6.97;;;12.40;99.90;;;;;;4957053;29;20702;-76
2022/11/15 00:53:55;;;;;;;9.17;7.13;;;12.40;99.90;;;;;;4956034;29;20233;-72
2022/11/15 00:56:21;;;;;;;8.90;7.93;;;12.40;99.90;;;;;;4955863;29;20426;-73
2022/11/15 00:58:46;;;;;;;12.40;7.63;;;12.40;99.90;;;;;;4956031;29;20178;-74
2022/11/15 01:01:13;;;;;;;12.10;7.83;;;12.50;99.90;;;;;;4958595;28;20184;-74
2022/11/15 01:03:40;;;;;;;9.53;7.73;;;12.50;99.90;;;;;;4965925;28;20277;-73
2022/11/15 01:06:07;;;;;;;10.27;7.60;;;12.60;99.90;;;;;;4964258;28;20465;-74
2022/11/15 01:08:34;;;;;;;10.20;6.90;;;12.60;99.90;;;;;;4966433;28;20449;-74
2022/11/15 01:11:05;;;;;;;10.40;8.20;;;12.60;99.90;;;;;;4962802;28;20470;-74
2022/11/15 01:13:33;;;;;;;10.20;9.10;;;12.70;99.90;;;;;;4962688;28;20438;-73
2022/11/15 01:15:59;;;;;;;7.70;6.90;;;12.80;99.90;;;;;;4963114;28;20470;-73
2022/11/15 01:18:25;;;;;;;8.90;7.40;;;12.80;99.90;;;;;;4965531;28;20433;-73
2022/11/15 01:20:50;;;;;;;10.27;7.00;;;12.90;99.90;;;;;;4963297;28;20453;-73
2022/11/15 01:23:16;;;;;;;9.00;7.67;;;12.90;99.90;;;;;;4964753;28;20205;-73
2022/11/15 01:25:41;;;;;;;10.57;7.57;;;12.90;99.90;;;;;;4966292;28;20194;-73
2022/11/15 01:28:07;;;;;;;11.17;7.60;;;12.90;99.90;;;;;;4967886;28;20188;-71
2022/11/15 01:30:32;;;;;;;8.40;7.50;;;12.90;99.90;;;;;;4973651;28;20209;-75
2022/11/15 05:31:33;;;;;;;7.53;6.63;;;13.60;99.90;;;;;;5420495;23;21086;-72
2022/11/15 05:34:00;;;;;;;7.50;6.63;;;13.70;99.90;;;;;;4956066;29;20441;-74
2022/11/15 05:36:33;;;;;;;6.77;6.10;;;13.70;99.90;;;;;;4956168;29;20198;-74
2022/11/15 05:38:58;;;;;;;7.67;6.27;;;13.70;99.90;;;;;;4955906;29;20796;-74
2022/11/15 05:41:31;;;;;;;8.07;6.30;;;13.60;99.90;;;;;;4956015;29;20441;-74
2022/11/15 05:43:58;;;;;;;10.07;6.87;;;13.60;99.90;;;;;;4955564;29;20210;-74
2022/11/15 05:46:23;;;;;;;8.37;6.50;;;13.60;99.90;;;;;;4956139;29;20422;-74
2022/11/15 05:48:50;;;;;;;9.87;6.50;;;13.70;99.90;;;;;;4955933;29;20426;-74
2022/11/15 05:51:19;;;;;;;8.77;7.30;;;13.60;99.90;;;;;;4955932;29;20181;-73
2022/11/15 05:53:45;;;;;;;7.00;6.23;;;13.60;99.90;;;;;;4955631;29;20430;-72
2022/11/15 05:56:11;;;;;;;8.57;5.93;;;13.60;99.90;;;;;;4955881;29;20430;-73
2022/11/15 05:58:37;;;;;;;9.03;7.10;;;13.60;99.90;;;;;;4955964;29;20210;-73
2022/11/15 06:01:02;;;;;;;6.80;5.83;;;13.60;99.90;;;;;;4955662;29;20418;-73
2022/11/15 06:03:28;;;;;;;7.00;6.30;;;13.70;99.90;;;;;;4955553;29;20206;-72
2022/11/15 06:05:54;;;;;;;8.63;6.60;;;13.70;99.90;;;;;;4955483;29;20210;-72
2022/11/15 06:08:19;;;;;;;8.20;6.37;;;13.60;99.90;;;;;;4955525;29;20234;-72
2022/11/15 06:10:45;;;;;;;7.60;6.83;;;13.60;99.90;;;;;;4955512;29;20198;-72
2022/11/15 06:13:10;;;;;;;6.60;5.93;;;13.50;99.90;;;;;;4955686;29;20182;-72
2022/11/15 06:15:36;;;;;;;9.63;7.20;;;13.50;99.90;;;;;;4955656;29;20174;-72
2022/11/15 06:18:01;;;;;;;6.43;5.43;;;13.60;99.90;;;;;;4955657;29;20249;-72
2022/11/15 06:20:29;;;;;;;5.73;5.23;;;13.50;99.90;;;;;;4955635;29;20238;-75
2022/11/15 06:23:02;;;;;;;10.50;5.80;;;13.50;99.90;;;;;;4938162;29;20641;-73
2022/11/15 06:25:29;;;;;;;6.50;5.57;;;13.60;99.90;;;;;;4955477;29;20449;-73
2022/11/15 06:27:56;;;;;;;6.70;5.00;;;13.60;99.90;;;;;;4955368;29;20426;-73
2022/11/15 06:30:23;;;;;;;6.53;5.70;;;13.50;99.90;;;;;;4955058;28;20512;-73
2022/11/15 06:32:48;;;;;;;5.53;5.03;;;13.60;99.90;;;;;;4955363;29;20418;-73
2022/11/15 06:35:14;;;;;;;7.10;4.53;;;13.60;99.90;;;;;;4955373;29;20757;-73
2022/11/15 06:37:40;;;;;;;5.07;4.57;;;13.60;99.90;;;;;;4955195;29;20185;-73
2022/11/15 06:40:08;;;;;;;7.40;4.30;;;13.60;99.90;;;;;;4955141;29;20438;-73
2022/11/15 06:42:33;;;;;;;5.47;4.60;;;13.70;99.90;;;;;;4955106;29;20423;-73
2022/11/15 06:44:59;;;;;;;5.00;4.50;;;13.70;99.90;;;;;;4955132;29;20525;-71
2022/11/15 06:47:25;;;;;;;4.80;4.17;;;13.70;99.90;;;;;;4955167;29;20178;-71
2022/11/15 06:49:51;;;;;;;4.50;4.10;;;13.70;99.90;;;;;;4937811;29;20186;-72
2022/11/15 06:52:18;;;;;;;5.10;3.80;;;13.70;99.90;;;;;;4955198;29;20182;-71
2022/11/15 06:54:43;;;;;;;4.10;3.80;;;13.80;99.90;;;;;;4955094;29;20185;-71
2022/11/15 06:57:10;;;;;;;4.60;3.87;;;13.80;99.90;;;;;;4955022;29;20772;-70
2022/11/15 06:59:36;;;;;;;5.60;4.10;;;13.80;99.90;;;;;;4937748;29;20261;-71
2022/11/15 07:02:01;;;;;;;3.60;3.10;;;13.90;99.90;;;;;;4954812;29;20505;-71
2022/11/15 07:04:27;;;;;;;4.03;2.80;;;13.90;99.90;;;;;;4954687;29;20238;-70
2022/11/15 07:06:52;;;;;;;4.70;3.30;;;13.90;99.90;;;;;;4954822;29;20214;-73
2022/11/15 07:09:18;;;;;;;3.07;2.80;;;13.90;99.90;;;;;;4955056;29;20685;-73
2022/11/15 07:11:43;;;;;;;3.87;2.77;;;13.80;99.90;;;;;;4954984;29;20178;-73
2022/11/15 07:14:09;;;;;;;4.40;3.07;;;13.90;99.90;;;;;;4955044;29;20618;-73
2022/11/15 07:16:36;;;;;;;4.40;4.00;;;13.90;99.90;;;;;;4954976;29;20186;-73
2022/11/15 07:19:02;;;;;;;2.83;2.60;;;13.90;99.90;;;;;;4954874;29;20556;-72
2022/11/15 07:21:27;;;;;;;2.90;2.60;;;13.90;99.90;;;;;;4954948;29;20422;-73
2022/11/15 07:23:53;;;;;;;2.50;2.30;;;13.90;99.90;;;;;;4954680;29;20222;-73
2022/11/15 07:26:19;;;;;;;3.03;2.73;;;13.80;99.90;;;;;;4954895;29;20646;-72
2022/11/15 07:28:44;;;;;;;5.10;3.13;;;13.90;99.90;;;;;;4954878;29;20187;-73
2022/11/15 07:31:10;;;;;;;2.83;2.50;;;13.90;99.90;;;;;;4954810;28;20237;-72
2022/11/15 07:33:35;;;;;;;4.00;2.20;;;13.90;99.90;;;;;;4954515;29;20183;-72
2022/11/15 07:36:03;;;;;;;4.37;2.83;;;13.90;99.90;;;;;;4954743;29;20178;-74
2022/11/15 07:38:29;;;;;;;3.50;2.70;;;13.90;99.90;;;;;;4954795;29;20656;-73
2022/11/15 07:41:00;;;;;;;5.17;2.73;;;14.00;99.90;;;;;;4954809;29;20461;-73
2022/11/15 07:43:27;;;;;;;3.03;2.70;;;14.00;99.90;;;;;;4927011;29;21283;-76
2022/11/15 07:45:53;;;;;;;3.77;2.27;;;13.90;99.90;;;;;;4928157;29;20509;-78
2022/11/15 07:48:19;;;;;;;4.10;2.30;;;13.80;99.90;;;;;;4943675;29;20427;-75
2022/11/15 07:50:45;;;;;;;2.63;2.40;;;13.90;99.90;;;;;;4945918;29;20855;-74
2022/11/15 07:53:10;;;;;;;4.07;3.27;;;13.90;99.90;;;;;;4947882;29;20178;-75
2022/11/15 07:55:36;;;;;;;4.47;2.90;;;13.90;99.90;;;;;;4946482;29;20183;-76
2022/11/15 07:58:09;;;;;;;3.77;2.80;;;13.80;99.90;;;;;;4948176;29;20657;-81
2022/11/15 08:00:36;;;;;;;3.03;2.60;;;13.80;99.90;;;;;;4948352;29;20902;-80
2022/11/15 08:03:15;;;;;;;2.43;2.23;;;13.90;99.90;;;;;;4943085;29;20455;-78
2022/11/15 08:05:42;;;;;;;3.33;2.70;;;13.90;99.90;;;;;;4928441;29;20442;-79
2022/11/15 08:08:10;;;;;;;7.30;2.60;;;13.90;99.90;;;;;;4951324;29;20485;-79
2022/11/15 08:10:36;;;;;;;2.93;2.53;;;13.90;99.90;;;;;;4930529;29;20441;-77
2022/11/15 08:13:04;;;;;;;3.00;2.40;;;13.90;99.90;;;;;;4945933;29;20510;-79
2022/11/15 08:15:30;;;;;;;3.90;2.50;;;13.90;99.90;;;;;;4948192;29;20937;-77
2022/11/15 08:17:58;;;;;;;3.87;3.47;;;13.90;99.90;;;;;;4945052;29;20441;-79
2022/11/15 08:20:25;;;;;;;3.97;2.13;;;13.90;99.90;;;;;;4947886;29;21210;-79
2022/11/15 08:22:50;;;;;;;2.50;2.30;;;13.90;99.90;;;;;;4948057;29;20435;-79
2022/11/15 08:25:16;;;;;;;3.20;2.40;;;14.00;99.90;;;;;;4945680;29;20550;-79
2022/11/15 08:27:41;;;;;;;2.70;2.50;;;14.00;99.90;;;;;;4947682;29;20221;-79
2022/11/15 08:30:07;;;;;;;2.23;2.03;;;13.90;99.90;;;;;;4948686;29;20547;-80
2022/11/15 08:32:33;;;;;;;3.47;2.07;;;13.90;99.90;;;;;;4956595;28;20698;-80
2022/11/15 08:34:59;;;;;;;6.40;2.80;;;13.80;99.90;;;;;;4956718;29;20430;-76
2022/11/15 08:37:24;;;;;;;2.50;1.87;;;13.90;99.90;;;;;;4956494;29;20422;-78
2022/11/15 08:39:50;;;;;;;5.33;2.80;;;13.90;99.90;;;;;;4956598;29;20192;-76
2022/11/15 08:42:16;;;;;;;2.67;2.13;;;14.10;99.90;;;;;;4956570;29;20179;-76
2022/11/15 08:44:42;;;;;;;2.63;2.10;;;14.20;99.90;;;;;;4956519;29;20621;-79
2022/11/15 08:47:07;;;;;;;2.93;2.60;;;14.10;99.90;;;;;;4949576;29;20179;-80
2022/11/15 08:49:33;;;;;;;2.80;1.83;;;14.10;99.90;;;;;;4936839;29;20442;-80
2022/11/15 08:51:59;;;;;;;2.33;2.13;;;14.10;99.90;;;;;;4937425;29;20198;-81
2022/11/15 08:54:24;;;;;;;2.77;1.70;;;14.10;99.90;;;;;;4945232;28;20781;-82
2022/11/15 08:56:50;;;;;;;1.87;1.40;;;14.10;99.90;;;;;;4946423;29;20203;-81
2022/11/15 08:59:15;;;;;;;1.80;1.70;;;14.10;99.90;;;;;;4946313;29;20265;-83
2022/11/15 09:01:41;;;;;;;4.73;2.10;;;14.10;99.90;;;;;;4947432;29;20318;-84
2022/11/15 09:04:06;;;;;;;3.50;1.83;;;14.10;99.90;;;;;;4949369;29;20234;-82
2022/11/15 09:06:32;;;;;;;3.37;2.20;;;14.20;99.90;;;;;;4946510;29;20171;-81
2022/11/15 09:08:57;;;;;;;2.17;1.97;;;14.20;99.90;;;;;;4946192;29;20706;-82
2022/11/15 09:11:23;;;;;;;2.50;2.00;;;14.30;99.90;;;;;;4944577;29;20190;-80
2022/11/15 09:13:49;;;;;;;2.90;2.23;;;14.30;99.90;;;;;;4943505;29;20190;-80
2022/11/15 09:16:15;;;;;;;4.57;1.60;;;14.20;99.90;;;;;;4945758;29;20177;-80
2022/11/15 09:18:41;;;;;;;2.43;2.13;;;14.20;99.90;;;;;;4945966;29;20435;-80
2022/11/15 09:21:07;;;;;;;3.57;2.20;;;14.40;99.90;;;;;;4944519;29;20643;-83
2022/11/15 09:23:33;;;;;;;7.10;2.33;;;14.40;99.90;;;;;;4946083;29;20470;-93
2022/11/15 09:26:01;;;;;;;2.03;1.70;;;14.40;99.90;;;;;;4947096;29;20904;-86
2022/11/15 09:28:28;;;;;;;3.70;1.90;;;14.40;99.90;;;;;;4939816;29;20186;-85
2022/11/15 09:30:58;;;;;;;2.60;1.77;;;14.40;99.90;;;;;;4945442;28;20461;-75
2022/11/15 09:33:24;;;;;;;4.40;1.57;;;14.30;99.90;;;;;;4943901;29;20812;-77
2022/11/15 09:35:50;;;;;;;4.53;1.77;;;14.30;99.90;;;;;;4945854;29;20438;-77
2022/11/15 09:38:15;;;;;;;3.43;1.70;;;14.30;99.90;;;;;;4945490;29;20178;-75
2022/11/15 09:40:41;;;;;;;4.10;1.83;;;14.30;99.90;;;;;;4944411;29;20191;-75
2022/11/15 09:43:22;;;;;;;2.20;1.60;;;14.30;99.90;;;;;;4946160;29;20626;-75
2022/11/15 09:46:06;;;;;;;3.80;2.13;;;14.30;99.90;;;;;;4944374;29;20179;-76
2022/11/15 09:48:41;;;;;;;1.80;1.70;;;14.40;99.90;;;;;;4943907;29;20948;-76
2022/11/15 09:51:17;;;;;;;2.80;1.60;;;14.40;99.90;;;;;;4927108;29;20452;-75
2022/11/15 09:54:08;;;;;;;3.00;1.30;;;14.40;99.90;;;;;;4944132;29;20932;-83
2022/11/15 09:56:41;;;;;;;3.83;2.43;;;14.40;99.90;;;;;;4945401;29;20440;-88
2022/11/15 09:59:42;;;;;;;3.03;1.70;;;14.50;99.90;;;;;;4944344;29;20439;-82
2022/11/15 10:02:08;;;;;;;2.40;1.80;;;14.40;99.90;;;;;;4944129;29;20441;-77
2022/11/15 10:04:35;;;;;;;3.17;2.20;;;14.50;99.90;;;;;;4944746;29;20478;-74
2022/11/15 10:07:26;;;;;;;2.80;1.40;;;14.40;99.90;;;;;;4945303;29;20590;-74
2022/11/15 10:09:57;;;;;;;1.70;1.40;;;14.50;99.90;;;;;;4944968;29;20438;-74
2022/11/15 10:12:24;;;;;;;3.10;1.80;;;14.60;99.90;;;;;;4945853;29;20434;-73
2022/11/15 10:14:55;;;;;;;2.07;1.43;;;14.70;99.90;;;;;;4926997;29;20852;-73
2022/11/15 10:17:55;;;;;;;1.30;1.20;;;14.60;99.90;;;;;;4944016;29;20427;-78
2022/11/15 10:20:23;;;;;;;4.03;1.40;;;14.70;99.90;;;;;;4946478;29;20477;-73
2022/11/15 10:23:06;;;;;;;1.30;1.10;;;14.70;99.90;;;;;;4944519;29;20439;-74
2022/11/15 10:25:35;;;;;;;2.33;1.37;;;14.70;99.90;;;;;;4953177;29;20438;-74
2022/11/15 10:28:06;;;;;;;3.08;1.58;;;14.70;99.90;;;;;;4951337;29;20825;-73
2022/11/15 10:30:40;;;;;;;2.00;1.40;;;14.90;99.90;;;;;;4944781;28;20186;-73
2022/11/15 10:33:12;;;;;;;2.80;1.53;;;14.90;99.90;;;;;;4937913;29;20438;-73
2022/11/15 10:35:37;;;;;;;1.60;1.33;;;14.90;99.90;;;;;;4940443;29;20438;-73
2022/11/15 10:38:09;;;;;;;3.77;1.70;;;14.90;99.90;;;;;;4942937;29;20438;-75
2022/11/15 10:40:36;;;;;;;12.03;3.67;;;14.70;99.90;;;;;;4935311;29;20167;-75
2022/11/15 10:43:12;;;;;;;3.03;2.00;;;15.00;99.90;;;;;;4924999;29;20512;-74
2022/11/15 10:45:38;;;;;;;1.77;1.30;;;15.00;99.90;;;;;;4945792;29;20942;-74
2022/11/15 10:48:12;;;;;;;5.70;1.40;;;15.20;99.90;;;;;;4946963;29;20434;-74
2022/11/15 10:50:40;;;;;;;1.60;1.23;;;15.20;99.90;;;;;;4940792;29;20269;-74
2022/11/15 10:53:21;;;;;;;4.60;1.47;;;15.20;99.90;;;;;;4943846;29;20493;-74
2022/11/15 10:55:50;;;;;;;2.50;1.37;;;15.20;99.90;;;;;;4944581;29;20860;-77
2022/11/15 10:58:40;;;;;;;1.93;1.50;;;15.30;99.90;;;;;;4951333;29;20920;-76
2022/11/15 11:01:12;;;;;;;1.80;1.20;;;15.30;99.90;;;;;;4921061;29;20431;-74
2022/11/15 11:03:39;;;;;;;2.80;1.10;;;15.40;99.90;;;;;;4934919;29;20470;-75
2022/11/15 11:06:11;;;;;;;1.90;1.47;;;15.40;99.90;;;;;;4934866;29;20479;-75
2022/11/15 11:08:37;;;;;;;3.93;1.57;;;15.40;99.90;;;;;;4935026;29;20817;-77
2022/11/15 11:11:03;;;;;;;1.50;1.20;;;15.40;99.90;;;;;;4935033;29;20441;-77
2022/11/15 11:13:32;;;;;;;2.90;1.50;;;15.50;99.90;;;;;;4934994;29;20187;-77
2022/11/15 11:16:19;;;;;;;2.73;1.40;;;15.50;99.90;;;;;;4918050;29;20461;-77
2022/11/15 11:19:18;;;;;;;3.07;1.50;;;15.40;99.90;;;;;;4937718;29;20431;-76
2022/11/15 11:21:49;;;;;;;2.30;1.50;;;15.40;99.90;;;;;;4939259;29;20526;-80
2022/11/15 11:24:25;;;;;;;3.20;1.70;;;15.40;99.90;;;;;;4940904;29;20525;-88
2022/11/15 11:27:05;;;;;;;2.30;1.47;;;15.50;99.90;;;;;;4938509;29;20435;-76
2022/11/15 11:29:36;;;;;;;3.63;1.53;;;15.70;99.90;;;;;;4947356;29;20430;-74
2022/11/15 11:32:14;;;;;;;8.00;1.87;;;15.80;99.90;;;;;;4946645;28;20574;-76
2022/11/15 11:35:06;;;;;;;3.10;1.50;;;15.90;99.90;;;;;;4946275;29;20434;-76
2022/11/15 11:37:42;;;;;;;3.00;1.57;;;16.00;99.90;;;;;;4947702;29;20507;-77
2022/11/15 11:40:23;;;;;;;3.77;1.57;;;16.10;99.90;;;;;;4947523;29;20430;-77
2022/11/15 11:42:59;;;;;;;2.37;1.33;;;16.30;99.90;;;;;;4946692;29;20563;-77
2022/11/15 11:45:36;;;;;;;3.53;1.50;;;16.30;99.90;;;;;;4942622;29;20493;-77
2022/11/15 11:48:07;;;;;;;6.37;1.47;;;16.30;99.90;;;;;;4946636;29;20497;-77
2022/11/15 11:50:36;;;;;;;1.30;1.03;;;16.50;99.90;;;;;;4944853;29;20505;-77
2022/11/15 11:53:35;;;;;;;1.90;1.40;;;16.30;99.90;;;;;;4920278;29;20430;-77
2022/11/15 11:56:24;;;;;;;2.23;1.30;;;16.40;99.90;;;;;;4937458;29;20463;-77
2022/11/15 11:58:52;;;;;;;1.30;1.20;;;16.30;99.90;;;;;;4937347;29;20793;-76
2022/11/15 12:01:20;;;;;;;1.40;1.30;;;16.30;99.90;;;;;;4937178;29;20441;-78
2022/11/15 12:03:52;;;;;;;4.07;1.43;;;16.40;99.90;;;;;;4937099;29;20462;-77
2022/11/15 12:06:40;;;;;;;1.50;1.27;;;16.20;99.90;;;;;;4937303;29;20479;-77
2022/11/15 12:09:20;;;;;;;1.60;0.90;;;16.30;99.90;;;;;;4937310;29;20419;-77
2022/11/15 12:12:18;;;;;;;1.40;1.10;;;16.30;99.90;;;;;;4937130;29;20430;-77
2022/11/15 12:15:12;;;;;;;3.83;1.00;;;16.30;99.90;;;;;;4956034;29;20549;-76
2022/11/15 12:17:41;;;;;;;2.63;1.10;;;16.30;99.90;;;;;;4950162;29;20796;-75
2022/11/15 12:20:34;;;;;;;2.70;1.27;;;16.10;99.10;;;;;;4944992;29;20944;-76
2022/11/15 12:23:20;;;;;;;1.73;1.10;;;16.10;99.50;;;;;;4946487;29;20434;-77
2022/11/15 12:26:16;;;;;;;1.97;1.27;;;16.00;99.50;;;;;;4946908;29;20996;-77
2022/11/15 12:28:48;;;;;;;6.93;1.40;;;16.00;98.50;;;;;;4946184;29;20471;-74
2022/11/15 12:31:34;;;;;;;35.53;5.10;;;15.90;97.40;;;;;;4945533;29;20462;-74
2022/11/15 12:34:03;;;;;;;28.07;3.70;;;15.80;98.30;;;;;;4933826;29;20446;-75
2022/11/15 12:36:28;;;;;;;4.90;1.93;;;15.80;98.60;;;;;;4946671;29;20426;-74
2022/11/15 12:38:59;;;;;;;27.37;4.13;;;15.80;98.40;;;;;;4945148;29;20435;-73
2022/11/15 12:41:30;;;;;;;1.70;0.93;;;15.80;97.90;;;;;;4944640;29;20179;-74
2022/11/15 12:43:57;;;;;;;1.23;1.03;;;15.80;98.10;;;;;;4945620;29;20509;-75
2022/11/15 12:46:45;;;;;;;2.10;1.20;;;15.80;97.90;;;;;;4929172;29;20506;-76
2022/11/15 12:49:36;;;;;;;5.33;1.10;;;15.70;98.00;;;;;;4944697;29;20522;-75
2022/11/15 12:52:02;;;;;;;5.20;1.20;;;15.60;98.90;;;;;;4946184;29;20423;-76
2022/11/15 12:54:30;;;;;;;1.97;1.13;;;15.60;99.30;;;;;;4939344;29;20518;-78
2022/11/15 12:57:07;;;;;;;1.67;1.13;;;15.60;99.90;;;;;;4937143;29;20179;-77
2022/11/15 12:59:54;;;;;;;5.47;1.23;;;15.70;99.90;;;;;;4936935;29;20922;-75
2022/11/15 13:02:53;;;;;;;2.10;1.60;;;15.70;99.90;;;;;;4946630;29;20499;-76
2022/11/15 13:05:34;;;;;;;2.50;1.10;;;15.70;99.90;;;;;;4938114;29;20474;-76
2022/11/15 13:08:00;;;;;;;0.97;0.80;;;15.70;99.90;;;;;;4946464;29;20529;-76
2022/11/15 13:10:25;;;;;;;2.17;1.07;;;15.60;99.90;;;;;;4954983;29;20976;-76
2022/11/15 13:12:52;;;;;;;5.63;1.77;;;15.60;99.90;;;;;;4952712;29;20242;-75
2022/11/15 13:15:21;;;;;;;5.87;1.40;;;15.50;99.90;;;;;;4944970;29;20175;-74
2022/11/15 13:17:51;;;;;;;3.13;1.40;;;15.60;99.90;;;;;;4928691;29;20426;-75
2022/11/15 13:20:18;;;;;;;2.33;1.00;;;15.50;99.90;;;;;;4946337;29;20438;-76
2022/11/15 13:23:11;;;;;;;1.80;1.40;;;15.50;99.90;;;;;;4946383;29;20422;-77
2022/11/15 13:25:49;;;;;;;4.23;1.30;;;15.50;99.90;;;;;;4956212;29;20446;-77
2022/11/15 13:28:14;;;;;;;2.23;1.30;;;15.50;99.90;;;;;;4947847;29;20437;-79
2022/11/15 13:30:52;;;;;;;2.07;1.30;;;15.40;99.90;;;;;;4943665;29;20462;-80
2022/11/15 13:33:21;;;;;;;4.20;1.07;;;15.50;99.90;;;;;;4944041;29;20270;-77
2022/11/15 13:35:51;;;;;;;3.30;1.00;;;15.50;99.90;;;;;;4944494;29;20498;-77
2022/11/15 13:38:31;;;;;;;3.30;1.27;;;15.60;99.90;;;;;;4943237;29;20421;-79
2022/11/15 13:40:57;;;;;;;3.20;1.60;;;15.60;99.90;;;;;;4942228;28;20174;-78
2022/11/15 13:43:23;;;;;;;2.57;1.90;;;15.60;99.90;;;;;;4944148;29;20431;-79
2022/11/15 13:46:04;;;;;;;1.33;0.87;;;15.50;99.90;;;;;;4947438;29;20446;-78
2022/11/15 13:48:30;;;;;;;5.87;1.50;;;15.50;99.90;;;;;;4941855;29;20431;-79
2022/11/15 13:50:57;;;;;;;2.90;1.10;;;15.40;99.90;;;;;;4943231;29;20956;-81
2022/11/15 13:53:23;;;;;;;2.97;1.00;;;15.40;99.90;;;;;;4943705;29;20218;-79
2022/11/15 13:55:49;;;;;;;2.73;1.40;;;15.40;99.90;;;;;;4953288;29;20826;-77
2022/11/15 13:58:14;;;;;;;4.00;1.40;;;15.40;99.90;;;;;;4942247;29;20427;-82
2022/11/15 14:00:44;;;;;;;1.57;1.20;;;15.20;99.90;;;;;;4936380;29;20543;-78
2022/11/15 14:03:24;;;;;;;4.73;1.20;;;15.20;99.90;;;;;;4943169;29;20175;-76
2022/11/15 14:06:11;;;;;;;1.87;1.53;;;15.20;99.90;;;;;;4947606;29;21036;-76
2022/11/15 14:08:41;;;;;;;7.80;1.40;;;15.20;99.90;;;;;;4942966;29;20481;-85
2022/11/15 14:11:07;;;;;;;1.60;1.20;;;15.10;99.90;;;;;;4946997;29;20422;-88
2022/11/15 14:13:33;;;;;;;1.73;1.20;;;15.10;99.90;;;;;;4943530;29;20486;-79
2022/11/15 14:16:20;;;;;;;1.90;1.60;;;15.10;99.90;;;;;;4944925;29;20429;-78
2022/11/15 14:18:49;;;;;;;3.10;1.70;;;15.00;99.90;;;;;;4942889;29;20795;-79
2022/11/15 14:21:15;;;;;;;5.23;1.60;;;15.10;99.90;;;;;;4944730;29;20422;-78
2022/11/15 14:23:41;;;;;;;2.50;2.20;;;15.00;99.90;;;;;;4953797;29;20618;-79
2022/11/15 14:26:32;;;;;;;5.60;2.30;;;14.90;99.90;;;;;;4954623;29;20438;-78
2022/11/15 14:29:24;;;;;;;2.60;2.03;;;14.80;99.90;;;;;;4951905;29;20481;-78
2022/11/15 14:31:49;;;;;;;2.40;2.03;;;14.80;99.90;;;;;;4935219;29;21053;-78
2022/11/15 14:34:15;;;;;;;4.37;2.17;;;14.80;99.90;;;;;;4935422;29;20450;-78
2022/11/15 14:36:41;;;;;;;3.43;1.57;;;14.80;99.90;;;;;;4935180;29;20225;-78
2022/11/15 14:39:06;;;;;;;4.03;1.70;;;14.80;99.90;;;;;;4935302;29;20183;-80
2022/11/15 14:41:37;;;;;;;5.73;2.00;;;14.90;99.90;;;;;;4935027;29;20183;-78
2022/11/15 14:44:04;;;;;;;4.00;2.57;;;15.00;99.90;;;;;;4935091;29;20274;-78
2022/11/15 14:46:30;;;;;;;2.50;1.60;;;14.80;99.90;;;;;;4935104;29;20515;-78
2022/11/15 14:48:55;;;;;;;4.33;2.23;;;14.80;99.90;;;;;;4950554;29;20544;-78
2022/11/15 14:51:21;;;;;;;3.93;1.73;;;14.80;99.90;;;;;;4954320;28;20186;-78
2022/11/15 14:53:47;;;;;;;3.03;1.87;;;14.70;99.90;;;;;;4954347;29;20189;-78
2022/11/15 14:56:14;;;;;;;3.13;1.93;;;14.70;99.90;;;;;;4954119;29;20214;-82
2022/11/15 14:58:40;;;;;;;3.03;1.90;;;14.70;99.90;;;;;;4953542;29;20434;-79
2022/11/15 15:01:23;;;;;;;8.43;2.13;;;14.70;99.90;;;;;;4953628;29;20430;-78
2022/11/15 15:03:48;;;;;;;3.90;1.80;;;14.70;99.90;;;;;;4954175;29;20222;-80
2022/11/15 15:06:14;;;;;;;6.20;1.90;;;14.80;99.90;;;;;;4953993;29;20434;-78
2022/11/15 15:08:40;;;;;;;3.13;2.20;;;14.80;99.90;;;;;;4954144;29;20194;-82
2022/11/15 15:11:22;;;;;;;2.57;1.40;;;14.80;99.90;;;;;;4954257;29;20418;-80
2022/11/15 15:13:47;;;;;;;4.73;1.80;;;14.80;99.90;;;;;;4936867;29;20182;-75
2022/11/15 15:16:13;;;;;;;4.03;2.10;;;14.70;99.90;;;;;;4953863;29;20793;-76
2022/11/15 15:18:39;;;;;;;7.50;2.50;;;14.70;99.90;;;;;;4937011;29;20588;-86
2022/11/15 15:21:18;;;;;;;9.80;2.20;;;14.70;99.90;;;;;;4953689;29;20182;-76
2022/11/15 15:23:44;;;;;;;6.00;2.10;;;14.70;99.90;;;;;;4947879;29;20226;-76
2022/11/15 15:26:09;;;;;;;3.70;1.93;;;14.80;99.90;;;;;;4951414;29;21359;-78
2022/11/15 15:28:35;;;;;;;3.60;2.30;;;14.80;99.90;;;;;;4953915;29;20174;-81
2022/11/15 15:31:01;;;;;;;2.83;1.80;;;14.80;99.90;;;;;;4959944;28;20236;-78
2022/11/15 15:33:26;;;;;;;3.53;2.20;;;14.80;99.90;;;;;;4973297;28;20220;-77
2022/11/15 15:35:52;;;;;;;5.50;1.93;;;14.80;99.90;;;;;;4973118;28;20469;-78
2022/11/15 15:38:17;;;;;;;3.90;2.10;;;14.80;99.90;;;;;;4973088;28;20664;-75
2022/11/15 15:40:43;;;;;;;6.73;2.30;;;14.80;99.90;;;;;;4973170;28;20182;-75
2022/11/15 15:43:09;;;;;;;2.57;1.80;;;14.80;99.90;;;;;;4973234;28;20170;-77
2022/11/15 15:45:37;;;;;;;2.70;1.80;;;14.80;99.90;;;;;;4967282;28;20272;-79
2022/11/15 15:48:03;;;;;;;16.47;2.20;;;14.80;99.90;;;;;;4954472;28;20179;-82
2022/11/15 15:50:38;;;;;;;2.40;2.20;;;14.80;99.90;;;;;;4953724;29;20481;-82
2022/11/15 15:53:04;;;;;;;2.53;2.33;;;14.80;99.90;;;;;;4953131;29;20189;-79
2022/11/15 15:55:30;;;;;;;2.13;1.63;;;14.70;99.90;;;;;;4953816;29;20860;-83
2022/11/15 15:57:55;;;;;;;3.67;1.77;;;14.80;99.90;;;;;;4953560;29;20438;-82
2022/11/15 16:00:24;;;;;;;8.10;2.57;;;14.80;99.90;;;;;;4953607;29;20237;-82
2022/11/15 16:02:50;;;;;;;4.30;2.23;;;14.70;99.90;;;;;;4953786;28;20210;-82
2022/11/15 16:05:17;;;;;;;2.77;1.77;;;14.70;99.90;;;;;;4956490;29;20572;-82
2022/11/15 16:07:43;;;;;;;2.83;1.93;;;14.70;99.90;;;;;;4957711;29;20437;-80
2022/11/15 16:10:17;;;;;;;2.00;1.60;;;14.70;99.90;;;;;;4957684;29;20441;-83
2022/11/15 16:12:42;;;;;;;3.20;1.97;;;14.60;99.90;;;;;;4957555;29;20183;-81
2022/11/15 16:15:08;;;;;;;4.17;1.97;;;14.60;99.90;;;;;;4957615;29;20898;-74
2022/11/15 16:17:39;;;;;;;5.07;2.40;;;14.60;99.90;;;;;;4957729;29;20606;-74
2022/11/15 16:20:05;;;;;;;2.80;1.77;;;14.70;99.90;;;;;;4958010;29;20269;-74
2022/11/15 16:22:30;;;;;;;2.40;2.20;;;14.70;99.90;;;;;;4957785;29;20437;-74
2022/11/15 16:24:56;;;;;;;4.30;2.13;;;14.60;99.90;;;;;;4957555;29;20889;-74
2022/11/15 16:27:23;;;;;;;2.13;1.57;;;14.60;99.90;;;;;;4957769;29;20174;-83
2022/11/15 16:29:49;;;;;;;2.37;2.17;;;14.70;99.90;;;;;;4956799;29;20594;-77
2022/11/15 16:32:15;;;;;;;4.07;1.60;;;14.60;99.90;;;;;;4956485;29;20465;-77
2022/11/15 16:34:41;;;;;;;2.53;1.90;;;14.60;99.90;;;;;;4956866;29;20430;-76
2022/11/15 16:37:22;;;;;;;2.13;1.63;;;14.60;99.90;;;;;;4956430;29;20425;-76
2022/11/15 16:39:47;;;;;;;3.00;1.60;;;14.70;99.90;;;;;;4956149;29;20504;-77
2022/11/15 16:42:13;;;;;;;3.63;2.10;;;14.70;99.90;;;;;;4956338;29;20418;-76
2022/11/15 16:44:38;;;;;;;1.50;1.40;;;14.70;99.90;;;;;;4956107;29;20213;-77
2022/11/15 16:47:04;;;;;;;6.53;2.40;;;14.70;99.90;;;;;;4956344;29;20193;-75
2022/11/15 16:49:29;;;;;;;2.33;2.00;;;14.80;99.90;;;;;;4956443;29;20528;-76
2022/11/15 16:51:55;;;;;;;2.67;2.10;;;14.70;99.90;;;;;;4956104;29;20179;-74
2022/11/15 16:54:20;;;;;;;2.10;1.90;;;14.70;99.90;;;;;;4956044;29;20193;-73
2022/11/15 16:56:46;;;;;;;5.60;1.93;;;14.70;99.90;;;;;;4961753;28;20189;-73